Time;durP1;ratioP1;P1;durP2;ratioP2;P2;SDS_P1;SDS_P2;PMS_P1;PMS_P2;Temp;Humidity;BMP_temperature;BMP_pressure;BME280_temperature;BME280_humidity;BME280_pressure;Samples;Min_cycle;Max_cycle;Signal;HPM_P1;HPM_P2
2022/02/28 00:01:41;;;;;;;7.53;5.03;;;-1.30;99.90;;;;;;4972794;28;20266;-72
2022/02/28 00:04:06;;;;;;;9.17;5.20;;;-1.30;99.90;;;;;;4972552;28;20694;-72
2022/02/28 00:06:32;;;;;;;13.47;5.27;;;-1.40;99.90;;;;;;4973399;28;20488;-72
2022/02/28 00:08:57;;;;;;;9.47;4.93;;;-1.40;99.90;;;;;;4972708;28;20183;-72
2022/02/28 00:11:23;;;;;;;11.47;5.40;;;-1.40;99.90;;;;;;4972721;28;20193;-73
2022/02/28 00:13:48;;;;;;;9.63;5.80;;;-1.40;99.90;;;;;;4972738;28;20659;-73
2022/02/28 00:16:14;;;;;;;7.90;4.73;;;-1.40;99.90;;;;;;4971682;28;20296;-73
2022/02/28 00:18:39;;;;;;;8.20;5.33;;;-1.50;99.90;;;;;;4972698;28;20179;-72
2022/02/28 00:21:05;;;;;;;10.03;5.43;;;-1.50;99.90;;;;;;4972714;28;20194;-71
2022/02/28 00:23:30;;;;;;;6.97;4.97;;;-1.50;99.90;;;;;;4972147;28;20174;-73
2022/02/28 00:25:57;;;;;;;11.00;5.40;;;-1.60;99.90;;;;;;4972726;28;20269;-73
2022/02/28 00:28:23;;;;;;;8.17;5.33;;;-1.60;99.90;;;;;;4972952;28;20179;-73
2022/02/28 00:30:48;;;;;;;7.73;5.30;;;-1.50;99.90;;;;;;4972515;28;20412;-73
2022/02/28 00:33:14;;;;;;;9.13;5.83;;;-1.50;99.90;;;;;;4971552;28;20566;-73
2022/02/28 00:35:40;;;;;;;7.13;5.50;;;-1.50;99.90;;;;;;4972680;28;20172;-73
2022/02/28 00:38:08;;;;;;;7.30;5.30;;;-1.50;99.90;;;;;;4972743;28;20168;-72
2022/02/28 00:40:34;;;;;;;14.40;6.47;;;-1.60;99.90;;;;;;4972339;28;20447;-73
2022/02/28 00:43:00;;;;;;;14.77;4.90;;;-1.50;99.90;;;;;;4972004;28;20405;-73
2022/02/28 00:45:26;;;;;;;9.40;5.97;;;-1.50;99.90;;;;;;4971668;28;20421;-72
2022/02/28 00:47:52;;;;;;;7.13;5.20;;;-1.50;99.90;;;;;;4971122;28;20403;-72
2022/02/28 00:50:18;;;;;;;11.53;6.90;;;-1.50;99.90;;;;;;4970892;28;20182;-73
2022/02/28 00:52:43;;;;;;;10.83;5.67;;;-1.60;99.90;;;;;;4970675;28;20625;-71
2022/02/28 00:55:10;;;;;;;7.63;5.50;;;-1.60;99.90;;;;;;4971078;28;20394;-72
2022/02/28 00:57:36;;;;;;;6.73;5.70;;;-1.60;99.90;;;;;;4970994;28;20695;-72
2022/02/28 05:32:31;;;;;;;9.80;6.63;;;-3.50;99.90;;;;;;5247412;22;20568;-76
2022/02/28 05:34:57;;;;;;;19.50;7.27;;;-3.60;99.90;;;;;;5010605;28;20509;-72
2022/02/28 05:37:23;;;;;;;8.40;6.30;;;-3.60;99.90;;;;;;5010507;28;20638;-72
2022/02/28 05:39:48;;;;;;;13.30;7.00;;;-3.60;99.90;;;;;;5010388;28;20167;-72
2022/02/28 05:42:14;;;;;;;8.83;6.33;;;-3.60;99.90;;;;;;4997017;28;20195;-74
2022/02/28 05:44:39;;;;;;;11.27;6.27;;;-3.60;99.90;;;;;;4990164;28;20644;-73
2022/02/28 05:47:05;;;;;;;11.23;6.47;;;-3.60;99.90;;;;;;4990975;28;20171;-71
2022/02/28 05:49:30;;;;;;;13.63;7.70;;;-3.60;99.90;;;;;;4990266;28;20190;-72
2022/02/28 05:51:56;;;;;;;8.03;5.90;;;-3.70;99.90;;;;;;4990915;28;20203;-73
2022/02/28 05:54:21;;;;;;;13.47;7.63;;;-3.60;99.90;;;;;;4990194;28;20439;-74
2022/02/28 05:56:47;;;;;;;10.07;6.00;;;-3.60;99.90;;;;;;4991013;28;20172;-73
2022/02/28 05:59:12;;;;;;;10.47;6.77;;;-3.60;99.90;;;;;;4990604;28;20167;-72
2022/02/28 06:01:38;;;;;;;11.03;7.00;;;-3.50;99.90;;;;;;4989640;28;20195;-73
2022/02/28 06:04:04;;;;;;;9.40;5.97;;;-3.50;99.90;;;;;;4990203;28;20657;-74
2022/02/28 06:06:30;;;;;;;12.20;7.13;;;-3.50;99.90;;;;;;4990898;28;20180;-74
2022/02/28 06:08:56;;;;;;;18.70;6.77;;;-3.50;99.90;;;;;;4990611;28;20424;-74
2022/02/28 06:11:22;;;;;;;11.20;6.50;;;-3.50;99.90;;;;;;4990406;28;20199;-74
2022/02/28 06:13:47;;;;;;;14.03;7.00;;;-3.50;99.90;;;;;;4990190;28;20974;-73
2022/02/28 06:16:13;;;;;;;9.93;7.03;;;-3.50;99.90;;;;;;4990324;28;20597;-74
2022/02/28 06:18:38;;;;;;;11.57;6.70;;;-3.50;99.90;;;;;;4991181;28;20207;-75
2022/02/28 06:21:04;;;;;;;13.00;7.03;;;-3.50;99.90;;;;;;4992086;28;20722;-74
2022/02/28 06:23:30;;;;;;;12.00;6.40;;;-3.50;99.90;;;;;;4994656;28;20179;-73
2022/02/28 06:25:55;;;;;;;11.33;6.77;;;-3.50;99.90;;;;;;4994727;28;20209;-73
2022/02/28 06:28:21;;;;;;;11.03;7.83;;;-3.50;99.90;;;;;;4993933;28;20547;-74
2022/02/28 06:30:47;;;;;;;11.53;8.03;;;-3.40;99.90;;;;;;4992114;28;20186;-74
2022/02/28 06:33:13;;;;;;;15.23;7.90;;;-3.40;99.90;;;;;;4993329;28;20208;-74
2022/02/28 06:35:38;;;;;;;14.87;9.00;;;-3.30;99.90;;;;;;4994265;28;20648;-74
2022/02/28 06:38:09;;;;;;;17.40;8.67;;;-3.30;99.90;;;;;;4994106;28;20250;-72
2022/02/28 06:40:36;;;;;;;15.33;7.63;;;-3.20;99.90;;;;;;4994502;28;20277;-73
2022/02/28 06:43:03;;;;;;;14.40;8.90;;;-3.20;99.90;;;;;;4993529;28;20396;-74
2022/02/28 06:45:28;;;;;;;14.30;8.63;;;-3.10;99.90;;;;;;4992899;28;20397;-74
2022/02/28 06:47:53;;;;;;;17.00;8.30;;;-3.00;99.90;;;;;;4994061;28;20859;-74
2022/02/28 06:50:19;;;;;;;13.87;8.00;;;-3.00;99.90;;;;;;4993683;28;20234;-75
2022/02/28 06:52:45;;;;;;;12.77;7.63;;;-2.90;99.90;;;;;;4993398;28;20218;-71
2022/02/28 06:55:10;;;;;;;15.27;8.40;;;-2.80;99.90;;;;;;4992623;28;20214;-76
2022/02/28 06:57:36;;;;;;;17.87;9.13;;;-2.70;99.90;;;;;;4993503;28;20262;-74
2022/02/28 07:00:03;;;;;;;16.60;9.50;;;-2.60;99.90;;;;;;4993509;28;20214;-73
2022/02/28 07:02:28;;;;;;;21.17;8.37;;;-2.50;99.90;;;;;;4993381;28;20205;-73
2022/02/28 07:04:54;;;;;;;11.40;7.03;;;-2.40;99.90;;;;;;4992453;28;20938;-74
2022/02/28 07:07:19;;;;;;;17.73;7.77;;;-2.30;99.90;;;;;;4993490;28;20185;-73
2022/02/28 07:09:46;;;;;;;13.33;8.20;;;-2.10;99.90;;;;;;4993526;28;20274;-73
2022/02/28 07:12:12;;;;;;;12.70;7.83;;;-1.90;99.90;;;;;;4993308;28;20209;-74
2022/02/28 07:14:38;;;;;;;15.57;8.50;;;-1.80;99.90;;;;;;4992535;28;20487;-74
2022/02/28 07:17:04;;;;;;;19.20;8.60;;;-1.60;99.90;;;;;;4993261;28;20391;-74
2022/02/28 07:19:30;;;;;;;14.20;8.27;;;-1.30;99.90;;;;;;4993313;28;20775;-74
2022/02/28 07:21:56;;;;;;;11.90;7.27;;;-0.50;99.90;;;;;;4992538;28;20541;-74
2022/02/28 07:24:22;;;;;;;11.40;6.10;;;0.50;99.90;;;;;;4990554;28;20175;-75
2022/02/28 07:26:48;;;;;;;10.07;7.37;;;1.00;99.90;;;;;;4983790;28;20393;-74
2022/02/28 07:29:14;;;;;;;11.90;7.47;;;2.30;99.90;;;;;;4981607;28;20408;-75
2022/02/28 07:31:39;;;;;;;13.47;8.00;;;4.10;99.90;;;;;;4977327;28;20447;-74
2022/02/28 07:34:05;;;;;;;10.33;7.90;;;5.90;99.90;;;;;;4972152;28;20244;-74
2022/02/28 07:36:30;;;;;;;11.67;8.03;;;7.10;99.90;;;;;;4973353;28;20557;-75
2022/02/28 07:38:56;;;;;;;9.87;7.90;;;8.10;99.90;;;;;;4973716;28;20175;-75
2022/02/28 07:41:22;;;;;;;10.10;7.40;;;8.70;99.90;;;;;;4973155;28;20258;-76
2022/02/28 07:43:47;;;;;;;12.93;9.00;;;9.10;99.90;;;;;;4972410;28;20268;-75
2022/02/28 07:46:13;;;;;;;9.67;7.77;;;9.50;99.90;;;;;;4973315;28;20176;-75
2022/02/28 07:48:38;;;;;;;14.33;10.00;;;10.20;99.90;;;;;;4973498;28;20215;-75
2022/02/28 07:51:04;;;;;;;14.30;7.97;;;10.40;99.90;;;;;;4972982;28;20211;-75
2022/02/28 07:53:30;;;;;;;38.70;21.40;;;10.90;99.90;;;;;;4971335;28;20219;-76
2022/02/28 07:55:56;;;;;;;16.10;11.07;;;10.70;99.90;;;;;;4972837;28;20422;-75
2022/02/28 07:58:21;;;;;;;13.00;10.90;;;10.20;99.90;;;;;;4973218;28;20912;-74
2022/02/28 08:00:47;;;;;;;16.93;12.53;;;9.90;99.90;;;;;;4973162;28;20595;-75
2022/02/28 08:03:12;;;;;;;18.30;12.37;;;9.50;99.90;;;;;;4971865;28;20689;-75
2022/02/28 08:05:38;;;;;;;20.97;14.57;;;9.30;99.90;;;;;;4978749;28;20193;-74
2022/02/28 08:08:04;;;;;;;34.80;14.67;;;9.00;99.90;;;;;;4982300;28;20252;-75
2022/02/28 08:10:29;;;;;;;16.70;13.50;;;8.80;99.90;;;;;;4977655;28;20197;-75
2022/02/28 08:12:56;;;;;;;20.83;13.50;;;8.70;99.90;;;;;;4972204;28;20706;-75
2022/02/28 08:15:22;;;;;;;32.20;12.87;;;8.60;99.90;;;;;;4972046;28;20180;-76
2022/02/28 08:17:48;;;;;;;25.73;12.67;;;8.60;99.90;;;;;;4973046;28;20443;-75
2022/02/28 08:20:13;;;;;;;20.13;12.37;;;8.60;99.90;;;;;;4972551;28;20610;-75
2022/02/28 08:22:39;;;;;;;22.13;13.93;;;8.60;99.90;;;;;;4971710;28;20483;-75
2022/02/28 08:25:05;;;;;;;19.20;12.33;;;8.60;99.90;;;;;;4970754;28;20205;-73
2022/02/28 08:27:31;;;;;;;17.00;11.90;;;8.50;99.90;;;;;;4972429;28;20184;-75
2022/02/28 08:29:57;;;;;;;21.53;12.23;;;8.50;99.90;;;;;;4973051;28;20763;-75
2022/02/28 08:32:22;;;;;;;17.10;11.03;;;8.70;99.90;;;;;;4972559;28;20393;-74
2022/02/28 08:34:48;;;;;;;18.47;11.83;;;8.90;99.90;;;;;;4971424;28;20181;-74
2022/02/28 08:37:13;;;;;;;21.47;10.77;;;9.10;99.90;;;;;;4972494;28;20172;-74
2022/02/28 08:39:39;;;;;;;17.50;12.17;;;9.30;99.90;;;;;;4972633;28;20181;-74
2022/02/28 08:42:05;;;;;;;18.83;12.17;;;9.20;99.90;;;;;;4972364;28;20200;-73
2022/02/28 08:44:31;;;;;;;21.13;11.60;;;9.20;99.90;;;;;;4971675;28;20233;-74
2022/02/28 08:46:57;;;;;;;17.23;10.97;;;9.20;99.90;;;;;;4972202;28;20419;-74
2022/02/28 08:49:23;;;;;;;18.20;11.50;;;9.30;99.90;;;;;;4972056;28;20449;-75
2022/02/28 08:51:48;;;;;;;21.03;12.67;;;9.40;99.90;;;;;;4972181;28;20497;-75
2022/02/28 08:54:14;;;;;;;18.77;10.40;;;9.40;99.90;;;;;;4971341;28;20579;-74
2022/02/28 08:56:39;;;;;;;17.87;12.80;;;8.90;99.90;;;;;;4971261;28;20182;-74
2022/02/28 08:59:06;;;;;;;17.60;11.93;;;9.00;99.90;;;;;;4971996;28;20190;-73
2022/02/28 09:01:31;;;;;;;23.90;12.33;;;9.30;99.90;;;;;;4971989;28;20239;-74
2022/02/28 09:03:57;;;;;;;19.13;11.57;;;9.40;99.90;;;;;;4972651;28;20422;-75
2022/02/28 09:06:23;;;;;;;17.20;11.60;;;9.40;99.90;;;;;;4971792;28;20193;-74
2022/02/28 09:08:48;;;;;;;23.77;11.17;;;9.80;99.90;;;;;;4972158;28;20592;-74
2022/02/28 09:11:15;;;;;;;19.83;12.20;;;10.20;99.90;;;;;;4971569;28;20257;-75
2022/02/28 09:13:41;;;;;;;18.37;10.57;;;9.90;99.90;;;;;;4971468;28;20201;-75
2022/02/28 09:16:06;;;;;;;21.83;12.07;;;9.90;99.90;;;;;;4971742;28;20424;-74
2022/02/28 09:18:33;;;;;;;16.37;10.60;;;10.10;99.90;;;;;;4971461;28;20201;-75
2022/02/28 09:20:59;;;;;;;16.53;10.23;;;9.90;99.90;;;;;;4971586;28;20693;-75
2022/02/28 09:23:24;;;;;;;17.83;11.87;;;9.90;99.90;;;;;;4971045;28;20417;-73
2022/02/28 09:25:50;;;;;;;19.60;11.00;;;10.20;99.90;;;;;;4971163;28;20182;-75
2022/02/28 09:28:16;;;;;;;19.73;12.00;;;10.50;99.90;;;;;;4971607;28;20176;-75
2022/02/28 09:30:42;;;;;;;17.23;11.33;;;10.40;99.90;;;;;;4971477;28;20425;-74
2022/02/28 09:33:08;;;;;;;15.27;10.17;;;10.40;99.90;;;;;;4970615;28;20682;-74
2022/02/28 09:35:34;;;;;;;16.60;11.53;;;10.50;99.90;;;;;;4971305;28;20538;-75
2022/02/28 09:37:59;;;;;;;23.30;11.90;;;10.50;99.90;;;;;;4971621;28;20185;-75
2022/02/28 09:40:30;;;;;;;16.10;11.13;;;10.40;99.90;;;;;;4971361;28;20221;-74
2022/02/28 09:42:59;;;;;;;14.40;10.43;;;10.50;99.90;;;;;;4970260;28;20229;-74
2022/02/28 09:45:28;;;;;;;17.60;10.10;;;10.70;99.90;;;;;;4970833;28;20409;-74
2022/02/28 09:47:57;;;;;;;20.03;11.03;;;11.00;99.90;;;;;;4971534;28;20422;-75
2022/02/28 09:50:24;;;;;;;15.13;10.93;;;11.20;99.90;;;;;;4971404;28;20905;-75
2022/02/28 09:52:49;;;;;;;23.63;11.53;;;11.10;99.90;;;;;;4970811;28;20838;-75
2022/02/28 09:55:15;;;;;;;15.27;10.40;;;11.00;99.90;;;;;;4970686;28;20415;-75
2022/02/28 09:57:46;;;;;;;19.43;11.00;;;11.00;99.90;;;;;;4971497;28;20204;-75
2022/02/28 10:00:20;;;;;;;14.80;10.33;;;10.90;99.90;;;;;;4970662;28;20188;-75
2022/02/28 10:02:47;;;;;;;12.87;9.70;;;10.90;99.90;;;;;;4971122;28;20446;-74
2022/02/28 10:05:13;;;;;;;17.00;11.33;;;11.00;99.90;;;;;;4971245;28;20420;-75
2022/02/28 10:07:53;;;;;;;16.90;11.67;;;10.80;99.60;;;;;;4971755;28;20421;-75
2022/02/28 10:10:20;;;;;;;17.23;12.23;;;11.20;99.90;;;;;;4971506;28;20777;-75
2022/02/28 10:12:46;;;;;;;19.60;12.60;;;11.40;99.90;;;;;;4970005;28;20472;-74
2022/02/28 10:15:16;;;;;;;12.70;10.57;;;11.60;99.90;;;;;;4972478;28;20933;-75
2022/02/28 10:17:48;;;;;;;13.70;10.77;;;11.80;99.70;;;;;;4970795;28;20418;-75
2022/02/28 10:20:15;;;;;;;13.83;10.17;;;12.10;98.40;;;;;;4970994;28;21041;-75
2022/02/28 10:22:41;;;;;;;16.20;10.70;;;11.70;97.40;;;;;;4971682;28;20444;-75
2022/02/28 10:25:06;;;;;;;18.80;11.10;;;11.50;96.80;;;;;;4970318;28;20440;-75
2022/02/28 10:27:32;;;;;;;17.73;11.70;;;11.30;97.80;;;;;;4971466;28;20179;-75
2022/02/28 10:29:57;;;;;;;18.10;10.93;;;11.50;98.00;;;;;;4971306;28;20192;-75
2022/02/28 10:32:26;;;;;;;15.03;11.57;;;11.90;99.00;;;;;;4971030;28;20212;-75
2022/02/28 10:37:45;;;;;;;15.20;10.27;;;12.20;96.90;;;;;;4971388;28;20978;-77
2022/02/28 10:40:12;;;;;;;13.93;10.80;;;12.90;98.10;;;;;;4971125;28;20423;-76
2022/02/28 10:42:47;;;;;;;18.47;10.37;;;12.70;96.30;;;;;;4970793;28;20442;-76
2022/02/28 10:45:22;;;;;;;15.60;10.30;;;12.70;95.40;;;;;;4969419;28;20923;-76
2022/02/28 10:47:49;;;;;;;20.60;11.90;;;12.70;94.90;;;;;;4970604;28;20415;-76
2022/02/28 10:50:40;;;;;;;16.90;10.43;;;11.60;95.60;;;;;;4970596;28;20414;-74
2022/02/28 10:53:14;;;;;;;17.40;12.20;;;11.70;96.90;;;;;;4970013;28;20502;-75
2022/02/28 10:55:39;;;;;;;18.67;9.90;;;12.30;96.20;;;;;;4970726;28;20904;-75
2022/02/28 10:58:15;;;;;;;12.43;10.10;;;12.90;95.60;;;;;;4970313;28;20415;-75
2022/02/28 11:01:06;;;;;;;14.50;10.30;;;13.00;94.30;;;;;;4970759;28;20168;-75
2022/02/28 11:03:47;;;;;;;16.00;10.57;;;12.30;93.80;;;;;;4969897;28;20783;-75
2022/02/28 11:06:20;;;;;;;16.23;11.17;;;12.70;95.40;;;;;;4969260;28;20430;-75
2022/02/28 11:08:45;;;;;;;16.90;10.40;;;12.50;93.90;;;;;;4972991;28;20477;-74
2022/02/28 11:11:13;;;;;;;16.23;12.00;;;12.40;93.60;;;;;;4973875;28;20446;-75
2022/02/28 11:13:41;;;;;;;17.33;11.00;;;12.20;95.20;;;;;;4973593;28;20208;-75
2022/02/28 11:16:09;;;;;;;14.20;10.60;;;12.40;94.10;;;;;;4973725;28;20427;-75
2022/02/28 11:18:37;;;;;;;16.20;10.10;;;12.50;93.80;;;;;;4973342;28;20517;-75
2022/02/28 11:21:03;;;;;;;15.73;10.80;;;12.40;93.90;;;;;;4973699;28;20501;-75
2022/02/28 11:23:28;;;;;;;16.33;10.77;;;12.30;93.30;;;;;;4973339;28;20422;-75
2022/02/28 11:25:56;;;;;;;17.77;11.70;;;12.00;93.90;;;;;;4974152;28;20779;-76
2022/02/28 11:28:21;;;;;;;17.77;10.90;;;12.10;95.90;;;;;;4973869;28;20190;-75
2022/02/28 11:30:47;;;;;;;21.13;10.23;;;12.20;93.60;;;;;;4973679;28;20507;-75
2022/02/28 11:33:15;;;;;;;13.00;9.87;;;12.40;93.30;;;;;;4972872;28;20219;-75
2022/02/28 11:35:53;;;;;;;16.10;11.10;;;12.50;94.60;;;;;;4973655;28;20419;-75
2022/02/28 11:38:18;;;;;;;17.07;10.50;;;12.50;92.30;;;;;;4974176;28;20410;-75
2022/02/28 11:40:52;;;;;;;14.77;10.23;;;12.40;92.40;;;;;;4972763;28;20518;-75
2022/02/28 11:43:29;;;;;;;18.33;10.93;;;12.10;92.10;;;;;;4973001;28;20444;-75
2022/02/28 11:45:57;;;;;;;12.30;9.67;;;12.40;93.30;;;;;;4973449;28;20538;-75
2022/02/28 11:48:26;;;;;;;16.63;11.63;;;12.20;91.40;;;;;;4973373;28;20485;-75
2022/02/28 11:50:56;;;;;;;13.73;9.13;;;11.80;92.10;;;;;;4973312;28;20781;-75
2022/02/28 11:53:53;;;;;;;15.03;10.10;;;11.60;92.50;;;;;;4972114;28;20501;-76
2022/02/28 11:56:18;;;;;;;15.10;9.67;;;11.30;91.30;;;;;;4973495;28;20953;-75
2022/02/28 11:58:56;;;;;;;15.03;9.37;;;11.00;91.60;;;;;;4973210;28;20425;-75
2022/02/28 12:01:37;;;;;;;13.63;9.40;;;11.30;93.20;;;;;;4972882;28;20490;-75
2022/02/28 12:04:13;;;;;;;12.63;9.90;;;11.50;92.20;;;;;;4972176;28;20529;-76
2022/02/28 12:07:06;;;;;;;12.67;9.10;;;11.50;92.90;;;;;;4973052;28;20988;-75
2022/02/28 12:09:32;;;;;;;12.00;8.60;;;11.70;92.80;;;;;;4972883;28;20950;-75
2022/02/28 12:12:14;;;;;;;11.97;9.50;;;11.70;91.80;;;;;;4972945;28;20447;-75
2022/02/28 12:14:57;;;;;;;14.10;8.77;;;11.60;91.60;;;;;;4972355;28;20175;-75
2022/02/28 12:17:44;;;;;;;15.77;10.17;;;11.40;92.90;;;;;;4972274;28;20419;-75
2022/02/28 12:20:18;;;;;;;15.50;10.10;;;11.40;92.40;;;;;;4972358;28;20486;-75
2022/02/28 12:25:58;;;;;;;11.80;9.30;;;11.00;92.00;;;;;;4971957;28;20942;-77
2022/02/28 12:28:35;;;;;;;14.63;8.67;;;11.00;92.30;;;;;;4972697;28;20821;-76
2022/02/28 12:31:07;;;;;;;12.90;9.10;;;11.30;93.40;;;;;;4972268;28;20445;-77
2022/02/28 12:33:41;;;;;;;15.00;9.40;;;11.40;92.90;;;;;;4972205;28;20490;-76
2022/02/28 12:36:20;;;;;;;13.47;8.80;;;11.30;92.20;;;;;;4971863;28;20763;-76
2022/02/28 12:38:51;;;;;;;17.23;9.03;;;10.90;91.20;;;;;;4972486;28;20426;-76
2022/02/28 12:41:26;;;;;;;19.47;9.27;;;10.80;92.30;;;;;;4972508;28;20470;-76
2022/02/28 12:43:53;;;;;;;17.33;9.37;;;10.80;92.40;;;;;;4971626;28;20424;-76
2022/02/28 12:46:20;;;;;;;11.50;8.50;;;10.90;92.10;;;;;;4972012;28;20434;-76
2022/02/28 12:48:47;;;;;;;13.33;8.30;;;10.90;90.80;;;;;;4971079;28;20461;-76
2022/02/28 12:51:16;;;;;;;13.00;8.60;;;10.90;91.40;;;;;;4972071;28;20436;-75
2022/02/28 12:53:45;;;;;;;10.70;8.20;;;10.80;91.10;;;;;;4971275;28;20476;-76
2022/02/28 12:56:13;;;;;;;12.37;9.10;;;10.80;91.80;;;;;;4972083;28;20421;-76
2022/02/28 12:58:49;;;;;;;13.20;8.70;;;10.40;90.20;;;;;;4972258;28;20988;-76
2022/02/28 13:01:20;;;;;;;13.97;8.20;;;10.20;90.30;;;;;;4972066;28;20569;-76
2022/02/28 13:03:56;;;;;;;12.97;8.67;;;10.30;91.20;;;;;;4971494;28;20491;-75
2022/02/28 13:06:24;;;;;;;14.83;8.80;;;10.20;90.60;;;;;;4971849;28;20417;-76
2022/02/28 13:08:58;;;;;;;16.73;8.80;;;10.20;91.20;;;;;;4975574;28;20436;-76
2022/02/28 13:11:25;;;;;;;13.33;9.17;;;10.20;92.10;;;;;;4971362;28;20456;-76
2022/02/28 13:13:53;;;;;;;15.00;9.10;;;10.10;92.40;;;;;;4971235;28;20546;-76
2022/02/28 13:16:19;;;;;;;12.40;8.90;;;10.20;92.70;;;;;;4971764;28;20419;-76
2022/02/28 13:18:44;;;;;;;11.87;8.13;;;10.20;92.30;;;;;;4970763;28;20680;-75
2022/02/28 13:21:10;;;;;;;11.43;7.63;;;10.30;91.70;;;;;;4969240;28;20200;-76
2022/02/28 13:23:39;;;;;;;11.00;7.90;;;10.40;92.50;;;;;;4971918;28;20647;-76
2022/02/28 13:26:05;;;;;;;12.63;8.37;;;10.50;91.60;;;;;;4970847;28;20204;-76
2022/02/28 13:28:32;;;;;;;14.50;9.10;;;10.50;92.10;;;;;;4970971;28;20450;-76
2022/02/28 13:30:57;;;;;;;12.03;8.30;;;10.40;90.70;;;;;;4968177;28;20461;-76
2022/02/28 13:33:28;;;;;;;14.90;9.17;;;10.20;90.60;;;;;;4980027;28;20467;-77
2022/02/28 13:35:54;;;;;;;11.17;8.50;;;10.10;90.40;;;;;;4989799;28;20644;-76
2022/02/28 13:38:21;;;;;;;12.80;8.57;;;10.10;91.00;;;;;;4988872;28;20787;-76
2022/02/28 13:40:47;;;;;;;10.93;7.73;;;10.10;91.30;;;;;;4986817;28;20760;-75
2022/02/28 13:43:14;;;;;;;12.43;8.60;;;10.20;91.50;;;;;;4978184;28;20475;-75
2022/02/28 13:45:41;;;;;;;17.47;9.43;;;10.30;91.10;;;;;;4988371;28;20479;-76
2022/02/28 13:48:18;;;;;;;20.00;8.70;;;10.30;90.40;;;;;;4987664;28;20457;-76
2022/02/28 13:50:51;;;;;;;9.50;7.60;;;10.40;91.40;;;;;;4989453;28;20503;-76
2022/02/28 13:53:17;;;;;;;10.63;9.07;;;10.30;88.80;;;;;;4988361;28;20937;-76
2022/02/28 13:55:45;;;;;;;13.07;8.53;;;10.10;88.80;;;;;;4989413;28;20418;-76
2022/02/28 13:58:12;;;;;;;12.57;8.50;;;10.00;90.30;;;;;;4989687;28;20181;-76
2022/02/28 14:00:54;;;;;;;13.30;8.40;;;9.90;90.50;;;;;;4991030;28;20421;-75
2022/02/28 14:03:25;;;;;;;15.87;8.73;;;10.00;90.40;;;;;;4989718;28;20407;-76
2022/02/28 14:05:54;;;;;;;12.73;8.50;;;10.00;89.10;;;;;;4990307;28;20416;-76
2022/02/28 14:08:29;;;;;;;15.20;8.00;;;9.90;90.40;;;;;;4990532;28;20908;-76
2022/02/28 14:11:05;;;;;;;12.90;8.40;;;9.90;90.50;;;;;;4990185;28;20419;-76
2022/02/28 14:13:41;;;;;;;11.10;8.67;;;10.00;90.60;;;;;;4988659;28;20471;-76
2022/02/28 14:16:21;;;;;;;14.60;9.07;;;10.00;90.80;;;;;;4990529;28;20409;-76
2022/02/28 14:19:03;;;;;;;11.07;8.27;;;10.00;88.60;;;;;;4990179;28;20913;-75
2022/02/28 14:21:29;;;;;;;16.60;9.30;;;9.90;90.10;;;;;;4988638;28;20444;-75
2022/02/28 14:23:55;;;;;;;11.97;8.17;;;10.00;89.00;;;;;;4989825;28;20503;-76
2022/02/28 14:26:21;;;;;;;11.60;8.07;;;9.90;90.00;;;;;;4990173;28;20537;-76
2022/02/28 14:28:46;;;;;;;12.13;7.80;;;9.90;90.10;;;;;;4990020;28;20194;-75
2022/02/28 14:31:15;;;;;;;11.10;7.20;;;9.90;88.00;;;;;;4989664;28;20208;-77
2022/02/28 14:33:51;;;;;;;12.03;7.60;;;10.00;86.10;;;;;;4989992;28;20213;-76
2022/02/28 14:36:18;;;;;;;12.50;8.40;;;10.00;85.80;;;;;;4990121;28;20414;-75
2022/02/28 14:38:44;;;;;;;13.73;7.77;;;10.10;87.10;;;;;;4990674;28;20431;-76
2022/02/28 14:41:10;;;;;;;11.40;8.00;;;10.00;87.90;;;;;;4989364;28;20944;-76
2022/02/28 14:43:39;;;;;;;11.63;8.20;;;10.00;89.10;;;;;;4993648;28;20508;-76
2022/02/28 14:46:10;;;;;;;11.27;7.43;;;10.00;89.00;;;;;;4993701;28;20419;-75
2022/02/28 14:48:36;;;;;;;13.20;8.40;;;10.10;90.00;;;;;;4994228;28;20420;-75
2022/02/28 14:51:01;;;;;;;15.20;8.33;;;10.10;87.00;;;;;;4993823;28;20439;-76
2022/02/28 14:53:27;;;;;;;12.10;7.30;;;10.00;84.30;;;;;;4993022;28;20844;-76
2022/02/28 14:55:52;;;;;;;14.50;8.20;;;10.00;85.50;;;;;;4989523;28;20189;-76
2022/02/28 14:58:18;;;;;;;12.10;8.50;;;10.10;85.40;;;;;;4991791;28;20244;-76
2022/02/28 15:00:46;;;;;;;13.63;8.00;;;10.10;87.00;;;;;;4991817;28;20201;-75
2022/02/28 15:03:11;;;;;;;12.87;8.37;;;10.00;86.10;;;;;;4987145;28;20237;-76
2022/02/28 15:05:37;;;;;;;15.63;8.50;;;9.90;88.10;;;;;;4991537;28;20428;-76
2022/02/28 15:08:04;;;;;;;10.00;7.93;;;9.90;87.90;;;;;;4993123;28;20187;-76
2022/02/28 15:10:31;;;;;;;11.70;7.20;;;9.80;88.20;;;;;;4992914;28;20274;-76
2022/02/28 15:13:01;;;;;;;12.33;7.70;;;9.80;88.60;;;;;;4992532;28;20463;-76
2022/02/28 15:15:30;;;;;;;9.90;7.17;;;9.90;87.90;;;;;;4941607;28;20441;-76
2022/02/28 15:17:56;;;;;;;11.93;7.83;;;9.90;88.20;;;;;;4976761;28;20471;-76
2022/02/28 15:20:22;;;;;;;10.47;8.13;;;9.90;88.30;;;;;;4991641;28;20458;-76
2022/02/28 15:22:47;;;;;;;11.50;7.80;;;9.80;84.90;;;;;;4991420;28;20728;-75
2022/02/28 15:25:13;;;;;;;15.70;8.30;;;9.80;86.10;;;;;;4991691;28;20313;-75
2022/02/28 15:27:39;;;;;;;15.00;8.30;;;9.80;85.60;;;;;;4979822;28;20236;-76
2022/02/28 15:30:06;;;;;;;15.93;9.13;;;9.70;85.10;;;;;;4992155;28;20320;-75
2022/02/28 15:32:31;;;;;;;18.43;8.67;;;9.70;85.00;;;;;;4991592;28;20644;-76
2022/02/28 15:34:57;;;;;;;15.63;7.70;;;9.70;85.30;;;;;;4991879;28;20473;-76
2022/02/28 15:37:22;;;;;;;12.13;7.90;;;9.70;86.40;;;;;;4992123;28;20312;-76
2022/02/28 15:39:50;;;;;;;9.97;8.10;;;9.70;86.60;;;;;;4991191;28;20188;-76
2022/02/28 15:42:16;;;;;;;10.37;7.97;;;9.70;86.60;;;;;;4989582;28;20217;-76
2022/02/28 15:44:42;;;;;;;19.93;9.73;;;9.70;86.80;;;;;;4991879;28;20796;-75
2022/02/28 15:47:08;;;;;;;7.90;6.60;;;9.60;86.20;;;;;;4992390;28;20539;-75
2022/02/28 15:49:33;;;;;;;9.33;7.50;;;9.70;86.00;;;;;;4992263;28;20518;-75
2022/02/28 15:52:00;;;;;;;13.17;8.00;;;9.60;86.50;;;;;;4991199;28;20251;-76
2022/02/28 15:54:26;;;;;;;18.63;7.70;;;9.50;85.40;;;;;;4990287;28;20214;-76
2022/02/28 15:56:52;;;;;;;9.77;7.83;;;9.50;86.10;;;;;;4991402;28;20450;-76
2022/02/28 15:59:17;;;;;;;9.57;6.70;;;9.50;86.00;;;;;;4991263;28;20436;-76
2022/02/28 16:01:43;;;;;;;9.13;7.60;;;9.50;85.00;;;;;;4991583;28;20205;-76
2022/02/28 16:04:09;;;;;;;12.50;8.60;;;9.50;84.50;;;;;;4990776;28;20212;-76
2022/02/28 16:06:35;;;;;;;12.23;6.87;;;9.40;85.10;;;;;;4991544;28;20286;-75
2022/02/28 16:09:01;;;;;;;12.27;7.90;;;9.40;84.40;;;;;;4991635;28;20515;-75
2022/02/28 16:11:28;;;;;;;10.67;6.83;;;9.40;84.00;;;;;;4990954;28;20243;-76
2022/02/28 16:13:55;;;;;;;8.87;7.27;;;9.30;84.40;;;;;;4990797;28;20982;-74
2022/02/28 16:16:22;;;;;;;8.90;7.77;;;9.30;84.10;;;;;;4990791;28;20852;-75
2022/02/28 16:18:47;;;;;;;8.33;6.40;;;9.30;84.70;;;;;;4991711;28;20980;-74
2022/02/28 16:21:13;;;;;;;11.77;8.20;;;9.20;84.90;;;;;;4991326;28;20436;-75
2022/02/28 16:23:38;;;;;;;12.40;7.50;;;9.20;84.90;;;;;;4990974;28;20217;-75
2022/02/28 16:26:04;;;;;;;11.90;7.67;;;9.10;85.00;;;;;;4990166;28;20698;-74
2022/02/28 16:28:30;;;;;;;10.30;6.20;;;9.10;85.50;;;;;;4991267;28;20525;-75
2022/02/28 16:30:56;;;;;;;11.90;7.33;;;9.10;86.50;;;;;;4990820;28;20243;-75
2022/02/28 16:33:22;;;;;;;11.13;7.80;;;9.00;86.30;;;;;;4990387;28;20942;-75
2022/02/28 16:35:47;;;;;;;13.30;8.00;;;9.00;86.90;;;;;;4990254;28;20282;-75
2022/02/28 16:38:13;;;;;;;9.53;7.60;;;8.90;87.40;;;;;;4990243;28;20210;-73
2022/02/28 16:40:39;;;;;;;9.77;6.73;;;8.90;88.10;;;;;;4990929;28;20750;-74
2022/02/28 16:43:05;;;;;;;11.10;7.53;;;8.90;88.20;;;;;;4990388;28;20550;-75
2022/02/28 16:45:30;;;;;;;20.50;7.60;;;8.80;89.10;;;;;;4990766;28;20237;-75
2022/02/28 16:47:56;;;;;;;11.40;7.97;;;8.70;88.70;;;;;;4991104;28;20422;-75
2022/02/28 16:50:22;;;;;;;12.93;9.40;;;8.70;89.40;;;;;;4990736;28;20211;-76
2022/02/28 16:52:47;;;;;;;11.37;8.27;;;8.60;90.10;;;;;;4989580;28;20343;-75
2022/02/28 16:55:13;;;;;;;10.37;7.27;;;8.50;90.50;;;;;;4991097;28;20285;-72
2022/02/28 16:57:39;;;;;;;7.97;5.87;;;8.50;90.60;;;;;;4989866;28;20254;-74
2022/02/28 17:00:07;;;;;;;10.10;7.07;;;8.40;90.10;;;;;;4990264;28;20210;-73
2022/02/28 17:02:34;;;;;;;8.23;6.13;;;8.30;90.10;;;;;;4990418;28;20479;-75
2022/02/28 17:04:59;;;;;;;6.93;6.10;;;8.20;90.20;;;;;;4990545;28;20431;-74
2022/02/28 17:07:25;;;;;;;8.63;6.83;;;8.20;90.30;;;;;;4990762;28;20479;-73
2022/02/28 17:09:50;;;;;;;10.17;6.30;;;8.10;90.30;;;;;;4990917;28;20665;-74
2022/02/28 17:12:16;;;;;;;8.63;6.40;;;7.90;90.30;;;;;;4988923;28;20211;-74
2022/02/28 17:14:42;;;;;;;9.97;7.27;;;7.80;90.80;;;;;;4988798;28;20214;-74
2022/02/28 17:17:09;;;;;;;10.80;7.10;;;7.70;90.70;;;;;;4990851;28;20444;-74
2022/02/28 17:19:36;;;;;;;8.00;6.33;;;7.60;91.40;;;;;;4990371;28;20886;-74